createdAt,value
2023-02-02T00:00:33.413Z,22.04
2023-02-02T00:03:00.286Z,22.05
2023-02-02T00:05:27.286Z,20.16
2023-02-02T00:07:54.039Z,18.71
2023-02-02T00:10:20.799Z,18.70
2023-02-02T00:12:47.545Z,19.52
2023-02-02T00:15:14.292Z,19.98
2023-02-02T00:17:41.221Z,20.59
2023-02-02T00:20:07.952Z,20.92
2023-02-02T00:22:35.191Z,21.02
2023-02-02T00:25:01.938Z,21.28
2023-02-02T00:27:28.719Z,21.22
2023-02-02T00:29:57.332Z,21.35
2023-02-02T00:32:24.072Z,21.51
2023-02-02T00:34:50.829Z,21.60
2023-02-02T00:37:17.558Z,21.59
2023-02-02T00:39:44.283Z,21.69
2023-02-02T00:42:11.045Z,21.77
2023-02-02T00:44:56.474Z,21.84
2023-02-02T00:47:23.229Z,21.89
2023-02-02T00:49:49.986Z,21.93
2023-02-02T00:52:16.728Z,21.89
2023-02-02T00:54:43.462Z,21.95
2023-02-02T00:57:10.197Z,20.86
2023-02-02T00:59:36.923Z,19.15
2023-02-02T01:02:03.737Z,17.86
2023-02-02T01:04:30.588Z,19.12
2023-02-02T01:06:57.354Z,20.01
2023-02-02T01:09:24.097Z,20.41
2023-02-02T01:11:50.851Z,20.88
2023-02-02T01:14:17.650Z,20.93
2023-02-02T01:16:44.560Z,21.05
2023-02-02T01:19:11.660Z,21.25
2023-02-02T01:21:38.420Z,21.32
2023-02-02T01:24:05.188Z,21.39
2023-02-02T01:26:31.975Z,21.49
2023-02-02T01:28:58.712Z,21.61
2023-02-02T01:31:25.477Z,21.64
2023-02-02T01:33:52.204Z,21.79
2023-02-02T01:36:18.945Z,21.82
2023-02-02T01:38:45.705Z,21.85
2023-02-02T01:41:12.461Z,21.88
2023-02-02T01:43:39.289Z,21.92
2023-02-02T01:46:06.086Z,21.93
2023-02-02T01:48:32.875Z,22.08
2023-02-02T01:50:59.621Z,21.63
2023-02-02T01:53:26.380Z,19.53
2023-02-02T01:55:53.140Z,18.55
2023-02-02T01:58:19.896Z,19.28
2023-02-02T02:00:47.159Z,19.58
2023-02-02T02:03:13.975Z,19.61
2023-02-02T02:05:40.723Z,19.57
2023-02-02T02:08:07.503Z,19.43
2023-02-02T02:10:34.821Z,19.39
2023-02-02T02:13:01.586Z,19.58
2023-02-02T02:15:47.111Z,20.23
2023-02-02T02:18:13.852Z,20.64
2023-02-02T02:20:59.239Z,20.80
2023-02-02T02:23:44.628Z,20.87
2023-02-02T02:26:30.100Z,21.07
2023-02-02T02:28:56.885Z,21.10
2023-02-02T02:31:23.722Z,21.27
2023-02-02T02:33:50.507Z,21.37
2023-02-02T02:36:17.251Z,21.44
2023-02-02T02:38:43.990Z,21.37
2023-02-02T02:41:10.851Z,21.66
2023-02-02T02:43:37.609Z,21.56
2023-02-02T02:46:04.392Z,21.62
2023-02-02T02:48:31.188Z,21.74
2023-02-02T02:50:57.937Z,21.75
2023-02-02T02:53:24.697Z,21.81
2023-02-02T02:55:51.473Z,21.93
2023-02-02T02:58:18.227Z,21.92
2023-02-02T03:00:44.960Z,21.99
2023-02-02T03:03:11.733Z,21.96
2023-02-02T03:05:38.508Z,20.72
2023-02-02T03:08:05.520Z,18.99
2023-02-02T03:10:32.278Z,18.60
2023-02-02T03:12:59.034Z,19.41
2023-02-02T03:15:26.094Z,19.10
2023-02-02T03:17:53.152Z,19.18
2023-02-02T03:20:19.942Z,19.18
2023-02-02T03:22:46.687Z,19.59
2023-02-02T03:25:13.819Z,20.15
2023-02-02T03:27:40.569Z,20.50
2023-02-02T03:30:07.899Z,20.72
2023-02-02T03:32:34.715Z,20.85
2023-02-02T03:35:01.461Z,20.95
2023-02-02T03:37:28.201Z,21.04
2023-02-02T03:39:54.940Z,21.14
2023-02-02T03:42:21.695Z,21.18
2023-02-02T03:44:48.468Z,21.26
2023-02-02T03:47:15.247Z,21.42
2023-02-02T03:49:41.985Z,21.41
2023-02-02T03:52:08.709Z,21.53
2023-02-02T03:54:35.509Z,21.71
2023-02-02T03:57:02.259Z,21.71
2023-02-02T03:59:29.003Z,21.71
2023-02-02T04:01:55.812Z,21.77
2023-02-02T04:04:22.597Z,21.84
2023-02-02T04:06:49.323Z,21.84
2023-02-02T04:09:16.071Z,21.87
2023-02-02T04:11:42.840Z,21.87
2023-02-02T04:14:09.684Z,21.98
2023-02-02T04:16:37.645Z,22.06
2023-02-02T04:19:04.459Z,20.33
2023-02-02T04:21:31.200Z,19.25
2023-02-02T04:23:57.957Z,19.39
2023-02-02T04:26:26.066Z,19.37
2023-02-02T04:28:52.995Z,19.10
2023-02-02T04:31:19.808Z,19.26
2023-02-02T04:33:46.552Z,19.50
2023-02-02T04:36:13.363Z,19.42
2023-02-02T04:38:40.189Z,20.17
2023-02-02T04:41:07.222Z,20.68
2023-02-02T04:43:33.962Z,20.72
2023-02-02T04:46:00.753Z,20.88
2023-02-02T04:48:27.553Z,20.95
2023-02-02T04:50:54.286Z,21.09
2023-02-02T04:53:21.029Z,21.21
2023-02-02T04:55:47.770Z,21.32
2023-02-02T04:58:14.519Z,21.38
2023-02-02T05:00:41.302Z,21.39
2023-02-02T05:03:08.069Z,21.51
2023-02-02T05:05:34.831Z,21.67
2023-02-02T05:08:01.573Z,21.62
2023-02-02T05:10:28.311Z,21.64
2023-02-02T05:12:55.037Z,21.79
2023-02-02T05:15:22.132Z,21.76
2023-02-02T05:17:48.981Z,21.91
2023-02-02T05:20:15.762Z,21.93
2023-02-02T05:22:42.512Z,21.90
2023-02-02T05:25:09.256Z,22.01
2023-02-02T05:27:36.070Z,21.37
2023-02-02T05:30:02.894Z,19.52
2023-02-02T05:32:29.710Z,18.84
2023-02-02T05:34:56.454Z,19.38
2023-02-02T05:37:23.350Z,19.15
2023-02-02T05:39:52.049Z,19.20
2023-02-02T05:42:18.833Z,19.07
2023-02-02T05:44:45.626Z,19.56
2023-02-02T05:47:12.354Z,20.45
2023-02-02T05:49:39.086Z,20.49
2023-02-02T05:52:05.855Z,20.78
2023-02-02T05:54:32.642Z,20.81
2023-02-02T05:57:01.079Z,21.04
2023-02-02T05:59:29.123Z,21.07
2023-02-02T06:01:55.911Z,21.27
2023-02-02T06:04:22.899Z,21.29
2023-02-02T06:06:49.687Z,21.47
2023-02-02T06:09:16.417Z,21.41
2023-02-02T06:11:43.158Z,21.53
2023-02-02T06:14:09.901Z,21.57
2023-02-02T06:16:36.730Z,21.67
2023-02-02T06:19:03.549Z,21.76
2023-02-02T06:21:33.216Z,21.83
2023-02-02T06:24:00.041Z,21.82
2023-02-02T06:26:27.013Z,21.86
2023-02-02T06:28:53.818Z,22.00
2023-02-02T06:31:20.683Z,21.96
2023-02-02T06:33:47.466Z,22.03
2023-02-02T06:36:14.229Z,22.07
2023-02-02T06:38:40.962Z,20.01
2023-02-02T06:41:07.688Z,18.91
2023-02-02T06:43:34.464Z,19.26
2023-02-02T06:46:01.256Z,19.52
2023-02-02T06:48:28.018Z,20.19
2023-02-02T06:50:54.826Z,20.54
2023-02-02T06:53:24.622Z,21.00
2023-02-02T06:55:51.359Z,21.08
2023-02-02T06:58:18.170Z,21.24
2023-02-02T07:00:44.907Z,21.43
2023-02-02T07:03:11.661Z,21.38
2023-02-02T07:05:39.223Z,21.50
2023-02-02T07:08:05.967Z,21.60
2023-02-02T07:11:13.235Z,21.63
2023-02-02T07:13:19.486Z,21.71
2023-02-02T07:15:46.270Z,21.80
2023-02-02T07:18:13.071Z,21.84
2023-02-02T07:20:39.839Z,21.87
2023-02-02T07:23:06.652Z,21.92
2023-02-02T07:25:33.417Z,21.96
2023-02-02T07:28:00.232Z,22.10
2023-02-02T07:30:29.644Z,21.26
2023-02-02T07:32:57.228Z,19.41
2023-02-02T07:35:24.407Z,18.52
2023-02-02T07:37:51.387Z,19.64
2023-02-02T07:40:18.171Z,19.52
2023-02-02T07:42:46.405Z,19.60
2023-02-02T07:45:24.554Z,19.70
2023-02-02T07:47:54.549Z,20.29
2023-02-02T07:50:21.635Z,20.54
2023-02-02T07:52:48.374Z,20.83
2023-02-02T07:55:15.223Z,20.99
2023-02-02T07:57:42.003Z,21.16
2023-02-02T08:00:09.346Z,21.31
2023-02-02T08:02:36.129Z,21.42
2023-02-02T08:05:02.930Z,21.44
2023-02-02T08:07:32.179Z,21.52
2023-02-02T08:09:58.916Z,21.60
2023-02-02T08:12:26.445Z,21.57
2023-02-02T08:14:53.392Z,21.65
2023-02-02T08:17:20.158Z,21.77
2023-02-02T08:19:46.910Z,21.86
2023-02-02T08:22:13.662Z,21.85
2023-02-02T08:24:42.742Z,21.90
2023-02-02T08:27:09.507Z,22.00
2023-02-02T08:29:36.278Z,21.98
2023-02-02T08:32:03.313Z,21.12
2023-02-02T08:34:30.089Z,19.43
2023-02-02T08:36:56.843Z,18.89
2023-02-02T08:39:24.478Z,19.68
2023-02-02T08:41:51.275Z,19.55
2023-02-02T08:44:18.077Z,20.29
2023-02-02T08:46:46.395Z,20.66
2023-02-02T08:49:13.175Z,21.05
2023-02-02T08:51:39.918Z,21.16
2023-02-02T08:54:06.702Z,21.23
2023-02-02T08:56:33.475Z,21.44
2023-02-02T08:59:00.331Z,21.58
2023-02-02T09:01:27.173Z,21.67
2023-02-02T09:03:53.918Z,21.68
2023-02-02T09:06:20.987Z,21.78
2023-02-02T09:08:47.772Z,21.81
2023-02-02T09:11:14.626Z,21.82
2023-02-02T09:13:41.473Z,21.87
2023-02-02T09:16:08.264Z,21.96
2023-02-02T09:18:35.205Z,21.96
2023-02-02T09:21:02.019Z,22.04
2023-02-02T09:23:28.846Z,20.02
2023-02-02T09:25:55.663Z,19.17
2023-02-02T09:28:22.412Z,19.61
2023-02-02T09:30:49.553Z,19.43
2023-02-02T09:33:16.329Z,19.29
2023-02-02T09:35:43.106Z,19.49
2023-02-02T09:38:09.954Z,19.78
2023-02-02T09:40:36.758Z,20.53
2023-02-02T09:43:03.983Z,20.67
2023-02-02T09:45:30.765Z,21.06
2023-02-02T09:47:58.325Z,21.13
2023-02-02T09:50:25.065Z,21.15
2023-02-02T09:52:51.820Z,21.27
2023-02-02T09:55:19.744Z,21.33
2023-02-02T09:57:46.487Z,21.46
2023-02-02T10:00:13.245Z,21.48
2023-02-02T10:02:40.023Z,21.56
2023-02-02T10:05:08.555Z,21.64
2023-02-02T10:07:35.335Z,21.73
2023-02-02T10:10:02.102Z,21.85
2023-02-02T10:12:28.876Z,21.89
2023-02-02T10:14:57.968Z,21.91
2023-02-02T10:17:24.800Z,21.95
2023-02-02T10:19:51.550Z,22.08
2023-02-02T10:22:18.312Z,20.55
2023-02-02T10:24:45.121Z,19.24
2023-02-02T10:27:11.869Z,19.07
2023-02-02T10:29:48.439Z,19.59
2023-02-02T10:32:22.397Z,19.07
2023-02-02T10:34:49.170Z,18.95
2023-02-02T10:37:15.907Z,19.22
2023-02-02T10:39:42.698Z,18.58
2023-02-02T10:42:09.844Z,18.84
2023-02-02T10:44:36.616Z,18.69
2023-02-02T10:47:03.405Z,18.66
2023-02-02T10:49:31.801Z,18.67
2023-02-02T10:51:58.548Z,18.40
2023-02-02T10:54:25.354Z,18.53
2023-02-02T10:56:53.852Z,18.37
2023-02-02T10:59:20.597Z,18.44
2023-02-02T11:01:48.488Z,18.44
2023-02-02T11:04:33.869Z,19.12
2023-02-02T11:07:01.697Z,19.65
2023-02-02T11:09:28.762Z,19.86
2023-02-02T11:11:55.633Z,20.01
2023-02-02T11:14:22.644Z,20.26
2023-02-02T11:16:49.421Z,20.27
2023-02-02T11:19:16.210Z,20.41
2023-02-02T11:21:43.168Z,20.58
2023-02-02T11:24:09.888Z,20.67
2023-02-02T11:26:36.637Z,20.85
2023-02-02T11:29:03.443Z,20.80
2023-02-02T11:31:30.433Z,20.98
2023-02-02T11:33:57.285Z,20.97
2023-02-02T11:36:24.023Z,21.05
2023-02-02T11:38:50.782Z,21.14
2023-02-02T11:41:19.079Z,21.23
2023-02-02T11:43:46.010Z,21.33
2023-02-02T11:46:12.799Z,21.42
2023-02-02T11:48:39.673Z,21.46
2023-02-02T11:51:06.493Z,21.44
2023-02-02T11:53:33.292Z,21.48
2023-02-02T11:56:00.075Z,21.56
2023-02-02T11:58:29.998Z,21.66
2023-02-02T12:00:56.814Z,21.63
2023-02-02T12:03:23.698Z,21.76
2023-02-02T12:05:50.499Z,21.89
2023-02-02T12:08:17.288Z,21.81
2023-02-02T12:10:44.058Z,21.90
2023-02-02T12:13:10.862Z,21.88
2023-02-02T12:15:37.632Z,21.94
2023-02-02T12:18:04.439Z,21.94
2023-02-02T12:20:31.194Z,21.93
2023-02-02T12:22:57.956Z,19.90
2023-02-02T12:25:25.109Z,18.99
2023-02-02T12:27:52.079Z,19.54
2023-02-02T12:30:18.824Z,19.50
2023-02-02T12:32:45.800Z,19.89
2023-02-02T12:35:12.545Z,20.65
2023-02-02T12:37:39.283Z,20.83
2023-02-02T12:40:06.117Z,21.09
2023-02-02T12:42:32.856Z,21.21
2023-02-02T12:44:59.871Z,21.26
2023-02-02T12:47:26.701Z,21.42
2023-02-02T12:49:53.669Z,21.46
2023-02-02T12:52:20.450Z,21.52
2023-02-02T12:54:55.685Z,21.61
2023-02-02T12:57:24.161Z,21.68
2023-02-02T12:59:50.938Z,21.71
2023-02-02T13:02:17.797Z,21.84
2023-02-02T13:04:44.566Z,21.86
2023-02-02T13:07:11.369Z,21.80
2023-02-02T13:09:38.112Z,21.91
2023-02-02T13:12:04.874Z,21.94
2023-02-02T13:14:31.705Z,21.01
2023-02-02T13:16:58.547Z,19.35
2023-02-02T13:19:25.322Z,18.37
2023-02-02T13:21:52.091Z,19.60
2023-02-02T13:24:18.867Z,19.54
2023-02-02T13:26:45.717Z,20.30
2023-02-02T13:29:12.655Z,20.71
2023-02-02T13:31:39.516Z,20.92
2023-02-02T13:34:06.288Z,21.06
2023-02-02T13:36:37.086Z,21.26
2023-02-02T13:39:03.927Z,21.41
2023-02-02T13:41:31.305Z,21.44
2023-02-02T13:43:59.178Z,21.55
2023-02-02T13:46:26.011Z,21.59
2023-02-02T13:48:52.903Z,21.73
2023-02-02T13:51:22.687Z,21.79
2023-02-02T13:53:49.531Z,21.75
2023-02-02T13:56:16.349Z,21.84
2023-02-02T13:58:43.263Z,21.90
2023-02-02T14:01:10.116Z,22.02
2023-02-02T14:03:38.732Z,21.98
2023-02-02T14:06:05.537Z,20.91
2023-02-02T14:08:32.292Z,19.30
2023-02-02T14:10:59.141Z,18.55
2023-02-02T14:13:44.650Z,19.53
2023-02-02T14:16:11.461Z,19.67
2023-02-02T14:18:38.233Z,19.65
2023-02-02T14:21:05.008Z,19.71
2023-02-02T14:23:31.754Z,19.56
2023-02-02T14:25:58.493Z,20.09
2023-02-02T14:28:25.255Z,20.28
2023-02-02T14:30:52.124Z,20.62
2023-02-02T14:33:18.942Z,20.92
2023-02-02T14:35:45.733Z,20.93
2023-02-02T14:38:13.458Z,21.05
2023-02-02T14:40:40.289Z,21.12
2023-02-02T14:43:25.817Z,21.18
2023-02-02T14:45:52.628Z,21.43
2023-02-02T14:48:19.722Z,21.45
2023-02-02T14:50:46.533Z,21.45
2023-02-02T14:53:13.294Z,21.63
2023-02-02T14:55:40.083Z,21.65
2023-02-02T14:58:06.850Z,21.73
2023-02-02T15:00:33.643Z,21.73
2023-02-02T15:03:00.391Z,21.84
2023-02-02T15:05:27.459Z,21.89
2023-02-02T15:07:54.677Z,21.93
2023-02-02T15:10:21.409Z,22.03
2023-02-02T15:12:49.676Z,21.98
2023-02-02T15:15:17.417Z,21.98
2023-02-02T15:17:48.664Z,19.69
2023-02-02T15:20:20.925Z,18.73
2023-02-02T15:22:47.693Z,19.06
2023-02-02T15:25:14.440Z,19.97
2023-02-02T15:27:55.099Z,20.47
2023-02-02T15:30:23.956Z,20.94
2023-02-02T15:32:50.752Z,21.09
2023-02-02T15:35:17.610Z,21.26
2023-02-02T15:37:44.884Z,21.32
2023-02-02T15:40:11.757Z,21.43
2023-02-02T15:42:53.932Z,21.54
2023-02-02T15:45:20.758Z,21.63
2023-02-02T15:47:47.514Z,21.65
2023-02-02T15:50:14.364Z,21.77
2023-02-02T15:52:41.114Z,21.74
2023-02-02T15:55:07.885Z,21.81
2023-02-02T15:57:34.653Z,21.98
2023-02-02T16:00:01.558Z,21.96
2023-02-02T16:02:28.327Z,22.08
2023-02-02T16:04:55.194Z,21.13
2023-02-02T16:07:22.038Z,19.08
2023-02-02T16:09:48.770Z,18.12
2023-02-02T16:12:18.471Z,19.54
2023-02-02T16:14:45.225Z,20.49
2023-02-02T16:17:12.502Z,20.67
2023-02-02T16:19:39.433Z,21.01
2023-02-02T16:22:06.214Z,21.11
2023-02-02T16:24:33.027Z,21.10
2023-02-02T16:26:59.755Z,21.26
2023-02-02T16:29:27.984Z,21.40
2023-02-02T16:31:54.764Z,21.50
2023-02-02T16:34:21.527Z,21.51
2023-02-02T16:36:48.363Z,21.59
2023-02-02T16:39:15.091Z,21.66
2023-02-02T16:41:41.872Z,21.76
2023-02-02T16:44:08.654Z,21.91
2023-02-02T16:46:35.396Z,21.87
2023-02-02T16:49:02.170Z,22.04
2023-02-02T16:51:29.012Z,21.95
2023-02-02T16:53:55.759Z,22.08
2023-02-02T16:56:22.501Z,21.15
2023-02-02T16:58:49.314Z,19.06
2023-02-02T17:01:17.014Z,17.68
2023-02-02T17:03:43.852Z,19.37
2023-02-02T17:06:10.629Z,20.15
2023-02-02T17:08:37.386Z,20.60
2023-02-02T17:11:04.161Z,20.91
2023-02-02T17:13:30.965Z,20.98
2023-02-02T17:15:57.843Z,21.15
2023-02-02T17:18:24.562Z,21.22
2023-02-02T17:20:57.335Z,21.27
2023-02-02T17:23:24.101Z,21.45
2023-02-02T17:25:50.838Z,21.46
2023-02-02T17:28:17.711Z,21.54
2023-02-02T17:30:44.540Z,21.73
2023-02-02T17:33:11.443Z,21.75
2023-02-02T17:35:53.243Z,21.80
2023-02-02T17:38:21.511Z,21.87
2023-02-02T17:40:48.307Z,22.00
2023-02-02T17:43:16.005Z,22.03
2023-02-02T17:45:42.998Z,22.07
2023-02-02T17:48:09.755Z,22.09
2023-02-02T17:50:36.555Z,22.10
2023-02-02T17:53:03.413Z,19.60
2023-02-02T17:55:30.306Z,17.92
2023-02-02T17:57:57.053Z,18.73
2023-02-02T18:00:24.101Z,20.00
2023-02-02T18:02:51.062Z,20.55
2023-02-02T18:05:17.789Z,20.82
2023-02-02T18:07:44.601Z,20.94
2023-02-02T18:10:11.371Z,21.04
2023-02-02T18:12:38.946Z,21.27
2023-02-02T18:15:05.740Z,21.38
2023-02-02T18:17:34.044Z,21.50
2023-02-02T18:20:00.938Z,21.54
2023-02-02T18:22:27.749Z,21.64
2023-02-02T18:24:54.532Z,21.76
2023-02-02T18:27:21.294Z,21.75
2023-02-02T18:29:48.078Z,21.80
2023-02-02T18:32:14.847Z,21.90
2023-02-02T18:34:41.615Z,21.90
2023-02-02T18:37:08.364Z,22.01
2023-02-02T18:39:35.133Z,22.12
2023-02-02T18:42:02.416Z,21.50
2023-02-02T18:44:29.448Z,18.78
2023-02-02T18:46:56.244Z,17.24
2023-02-02T18:49:23.115Z,19.04
2023-02-02T18:51:49.959Z,20.13
2023-02-02T18:54:16.801Z,20.58
2023-02-02T18:56:43.548Z,20.81
2023-02-02T18:59:10.326Z,21.08
2023-02-02T19:01:37.213Z,21.13
2023-02-02T19:04:04.141Z,21.20
2023-02-02T19:06:49.710Z,21.32
2023-02-02T19:09:17.206Z,21.41
2023-02-02T19:11:44.823Z,21.55
2023-02-02T19:14:11.711Z,21.56
2023-02-02T19:16:38.456Z,21.59
2023-02-02T19:19:05.239Z,21.71
2023-02-02T19:21:32.021Z,21.72
2023-02-02T19:23:58.746Z,21.85
2023-02-02T19:26:25.601Z,21.90
2023-02-02T19:28:52.431Z,21.91
2023-02-02T19:31:19.309Z,22.01
2023-02-02T19:33:46.137Z,20.43
2023-02-02T19:36:12.880Z,17.65
2023-02-02T19:38:39.607Z,17.48
2023-02-02T19:41:07.628Z,19.20
2023-02-02T19:43:36.319Z,20.02
2023-02-02T19:46:03.108Z,20.45
2023-02-02T19:48:29.980Z,20.78
2023-02-02T19:50:56.811Z,20.91
2023-02-02T19:53:23.568Z,20.99
2023-02-02T19:55:50.346Z,21.16
2023-02-02T19:58:17.104Z,21.33
2023-02-02T20:00:46.643Z,21.40
2023-02-02T20:03:13.567Z,21.45
2023-02-02T20:05:40.678Z,21.49
2023-02-02T20:08:07.442Z,21.70
2023-02-02T20:10:34.203Z,21.58
2023-02-02T20:13:00.943Z,21.75
2023-02-02T20:15:28.067Z,21.83
2023-02-02T20:17:55.083Z,21.89
2023-02-02T20:20:22.042Z,21.93
2023-02-02T20:22:48.793Z,21.91
2023-02-02T20:25:15.594Z,22.04
2023-02-02T20:27:43.753Z,22.01
2023-02-02T20:30:10.507Z,19.97
2023-02-02T20:32:37.347Z,17.57
2023-02-02T20:35:04.092Z,17.83
2023-02-02T20:37:30.886Z,19.85
2023-02-02T20:39:57.669Z,20.35
2023-02-02T20:42:24.500Z,20.67
2023-02-02T20:44:51.250Z,20.87
2023-02-02T20:47:17.981Z,21.07
2023-02-02T20:49:44.765Z,21.11
2023-02-02T20:52:12.846Z,21.21
2023-02-02T20:54:39.648Z,21.35
2023-02-02T20:57:06.435Z,21.42
2023-02-02T20:59:33.188Z,21.52
2023-02-02T21:02:00.057Z,21.49
2023-02-02T21:04:26.849Z,21.58
2023-02-02T21:06:55.174Z,21.72
2023-02-02T21:09:22.040Z,21.73
2023-02-02T21:11:48.858Z,21.92
2023-02-02T21:14:15.854Z,21.84
2023-02-02T21:16:42.653Z,21.88
2023-02-02T21:19:09.463Z,21.94
2023-02-02T21:21:36.267Z,21.94
2023-02-02T21:24:04.063Z,22.05
2023-02-02T21:26:31.116Z,20.64
2023-02-02T21:28:58.345Z,17.69
2023-02-02T21:31:25.425Z,17.59
2023-02-02T21:33:53.037Z,19.64
2023-02-02T21:36:20.656Z,20.16
2023-02-02T21:38:47.408Z,20.48
2023-02-02T21:41:14.218Z,20.76
2023-02-02T21:43:40.966Z,21.03
2023-02-02T21:46:07.753Z,21.15
2023-02-02T21:48:34.662Z,21.28
2023-02-02T21:51:01.390Z,21.38
2023-02-02T21:53:28.140Z,21.56
2023-02-02T21:55:55.042Z,21.52
2023-02-02T21:58:22.203Z,21.59
2023-02-02T22:00:48.947Z,21.60
2023-02-02T22:03:15.693Z,21.80
2023-02-02T22:05:42.477Z,21.79
2023-02-02T22:08:09.224Z,21.94
2023-02-02T22:10:36.493Z,21.88
2023-02-02T22:13:03.235Z,21.87
2023-02-02T22:15:29.974Z,21.98
2023-02-02T22:17:56.779Z,21.96
2023-02-02T22:20:23.521Z,19.34
2023-02-02T22:22:50.276Z,17.32
2023-02-02T22:25:17.092Z,18.21
2023-02-02T22:27:43.855Z,19.93
2023-02-02T22:30:10.615Z,20.40
2023-02-02T22:32:37.366Z,20.58
2023-02-02T22:35:04.167Z,20.88
2023-02-02T22:37:30.897Z,21.14
2023-02-02T22:40:00.355Z,21.23
2023-02-02T22:42:27.508Z,21.34
2023-02-02T22:44:54.279Z,21.40
2023-02-02T22:47:21.078Z,21.48
2023-02-02T22:49:47.818Z,21.51
2023-02-02T22:52:14.583Z,21.61
2023-02-02T22:54:41.375Z,21.64
2023-02-02T22:57:08.108Z,21.75
2023-02-02T22:59:34.852Z,21.82
2023-02-02T23:02:01.618Z,21.92
2023-02-02T23:04:28.358Z,21.95
2023-02-02T23:06:55.123Z,21.96
2023-02-02T23:09:21.873Z,22.05
2023-02-02T23:11:49.494Z,21.39
2023-02-02T23:14:16.328Z,18.26
2023-02-02T23:16:43.088Z,17.16
2023-02-02T23:19:09.833Z,19.10
2023-02-02T23:21:36.617Z,19.97
2023-02-02T23:24:03.376Z,20.40
2023-02-02T23:26:30.156Z,20.86
2023-02-02T23:28:56.908Z,20.95
2023-02-02T23:31:23.835Z,20.97
2023-02-02T23:33:50.680Z,21.24
2023-02-02T23:36:17.411Z,21.38
2023-02-02T23:38:44.188Z,21.43
2023-02-02T23:41:10.944Z,21.58
2023-02-02T23:43:37.677Z,21.51
2023-02-02T23:46:04.530Z,21.58
2023-02-02T23:48:31.324Z,21.75
2023-02-02T23:50:58.131Z,21.62
2023-02-02T23:53:24.922Z,21.76
2023-02-02T23:55:51.689Z,21.87
2023-02-02T23:58:20.410Z,21.84
